createdAt,value
2023-04-30T00:00:33.619Z,100.00
2023-04-30T00:03:02.038Z,100.00
2023-04-30T00:05:31.417Z,100.00
2023-04-30T00:07:59.060Z,100.00
2023-04-30T00:10:26.936Z,100.00
2023-04-30T00:12:54.674Z,100.00
2023-04-30T00:15:22.400Z,100.00
2023-04-30T00:17:50.090Z,100.00
2023-04-30T00:20:18.520Z,100.00
2023-04-30T00:22:48.279Z,100.00
2023-04-30T00:25:16.566Z,100.00
2023-04-30T00:27:44.572Z,100.00
2023-04-30T00:30:13.311Z,100.00
2023-04-30T00:32:41.964Z,100.00
2023-04-30T00:35:11.327Z,100.00
2023-04-30T00:37:39.850Z,100.00
2023-04-30T00:40:11.739Z,100.00
2023-04-30T00:42:40.215Z,100.00
2023-04-30T00:45:09.467Z,100.00
2023-04-30T00:47:37.991Z,100.00
2023-04-30T00:50:08.127Z,100.00
2023-04-30T00:52:36.251Z,100.00
2023-04-30T00:55:08.791Z,100.00
2023-04-30T00:57:39.623Z,100.00
2023-04-30T01:00:11.337Z,100.00
2023-04-30T01:02:39.405Z,100.00
2023-04-30T01:05:09.083Z,100.00
2023-04-30T01:07:41.768Z,100.00
2023-04-30T01:10:10.790Z,100.00
2023-04-30T01:12:47.678Z,100.00
2023-04-30T01:15:24.053Z,100.00
2023-04-30T01:17:57.765Z,100.00
2023-04-30T01:20:29.502Z,100.00
2023-04-30T01:23:10.696Z,100.00
2023-04-30T01:26:07.604Z,100.00
2023-04-30T01:28:37.509Z,100.00
2023-04-30T01:31:13.703Z,100.00
2023-04-30T01:33:41.925Z,100.00
2023-04-30T01:36:27.329Z,100.00
2023-04-30T01:39:17.680Z,100.00
2023-04-30T01:41:54.895Z,100.00
2023-04-30T01:44:47.064Z,100.00
2023-04-30T01:47:31.501Z,100.00
2023-04-30T01:50:16.661Z,100.00
2023-04-30T01:52:48.226Z,100.00
2023-04-30T01:55:21.260Z,100.00
2023-04-30T01:57:58.155Z,100.00
2023-04-30T02:00:28.859Z,100.00
2023-04-30T02:02:57.214Z,100.00
2023-04-30T02:05:25.175Z,100.00
2023-04-30T02:07:53.840Z,100.00
2023-04-30T02:10:25.095Z,100.00
2023-04-30T02:12:53.373Z,100.00
2023-04-30T02:15:21.412Z,100.00
2023-04-30T02:17:50.630Z,100.00
2023-04-30T02:20:18.631Z,100.00
2023-04-30T02:22:46.803Z,100.00
2023-04-30T02:25:14.815Z,100.00
2023-04-30T02:27:42.495Z,100.00
2023-04-30T02:30:11.048Z,100.00
2023-04-30T02:32:38.822Z,100.00
2023-04-30T02:35:08.916Z,100.00
2023-04-30T02:37:36.784Z,100.00
2023-04-30T02:40:05.116Z,100.00
2023-04-30T02:42:32.900Z,100.00
2023-04-30T02:45:00.554Z,100.00
2023-04-30T02:47:28.554Z,100.00
2023-04-30T02:49:56.567Z,100.00
2023-04-30T02:52:26.224Z,100.00
2023-04-30T02:54:54.005Z,100.00
2023-04-30T02:57:21.907Z,100.00
2023-04-30T02:59:50.062Z,100.00
2023-04-30T03:02:21.689Z,100.00
2023-04-30T03:04:49.673Z,100.00
2023-04-30T03:07:17.374Z,100.00
2023-04-30T03:09:47.669Z,100.00
2023-04-30T03:12:15.828Z,100.00
2023-04-30T03:14:43.634Z,100.00
2023-04-30T03:17:11.625Z,100.00
2023-04-30T03:19:39.379Z,100.00
2023-04-30T03:22:07.058Z,100.00
2023-04-30T03:24:35.106Z,100.00
2023-04-30T03:27:04.552Z,100.00
2023-04-30T03:29:32.267Z,100.00
2023-04-30T03:32:00.118Z,100.00
2023-04-30T03:34:27.911Z,100.00
2023-04-30T03:36:56.435Z,100.00
2023-04-30T03:39:24.808Z,100.00
2023-04-30T03:41:52.557Z,100.00
2023-04-30T03:44:23.609Z,100.00
2023-04-30T03:46:51.447Z,100.00
2023-04-30T03:49:19.549Z,100.00
2023-04-30T03:51:47.243Z,100.00
2023-04-30T03:54:15.485Z,100.00
2023-04-30T03:56:44.344Z,100.00
2023-04-30T03:59:12.269Z,100.00
2023-04-30T04:01:42.273Z,100.00
2023-04-30T04:04:10.214Z,100.00
2023-04-30T04:06:38.062Z,100.00
2023-04-30T04:09:06.549Z,100.00
2023-04-30T04:11:34.657Z,100.00
2023-04-30T04:14:03.011Z,100.00
2023-04-30T04:16:31.103Z,100.00
2023-04-30T04:19:01.093Z,100.00
2023-04-30T04:21:29.812Z,100.00
2023-04-30T04:23:58.276Z,100.00
2023-04-30T04:26:28.963Z,100.00
2023-04-30T04:28:56.807Z,100.00
2023-04-30T04:31:24.819Z,100.00
2023-04-30T04:33:58.156Z,100.00
2023-04-30T04:36:28.938Z,100.00
2023-04-30T04:39:02.006Z,100.00
2023-04-30T04:41:30.507Z,100.00
2023-04-30T04:43:58.451Z,100.00
2023-04-30T04:46:28.260Z,100.00
2023-04-30T04:48:56.313Z,100.00
2023-04-30T04:51:24.172Z,100.00
2023-04-30T04:53:53.310Z,100.00
2023-04-30T04:56:21.356Z,100.00
2023-04-30T04:58:49.087Z,100.00
2023-04-30T05:01:17.430Z,100.00
2023-04-30T05:03:47.634Z,100.00
2023-04-30T05:06:15.984Z,100.00
2023-04-30T05:08:43.821Z,100.00
2023-04-30T05:11:15.618Z,100.00
2023-04-30T05:13:43.937Z,100.00
2023-04-30T05:16:11.911Z,100.00
2023-04-30T05:18:39.818Z,100.00
2023-04-30T05:21:08.311Z,100.00
2023-04-30T05:23:36.675Z,100.00
2023-04-30T05:26:05.414Z,100.00
2023-04-30T05:28:37.285Z,100.00
2023-04-30T05:31:05.257Z,100.00
2023-04-30T05:33:33.941Z,100.00
2023-04-30T05:36:01.847Z,100.00
2023-04-30T05:38:29.535Z,100.00
2023-04-30T05:40:57.179Z,100.00
2023-04-30T05:43:24.860Z,100.00
2023-04-30T05:45:54.193Z,100.00
2023-04-30T05:48:21.860Z,100.00
2023-04-30T05:50:49.637Z,100.00
2023-04-30T05:53:17.277Z,100.00
2023-04-30T05:55:45.008Z,100.00
2023-04-30T05:58:13.309Z,100.00
2023-04-30T06:00:41.008Z,100.00
2023-04-30T06:03:10.205Z,100.00
2023-04-30T06:05:38.297Z,100.00
2023-04-30T06:08:06.335Z,100.00
2023-04-30T06:10:34.345Z,100.00
2023-04-30T06:13:02.071Z,100.00
2023-04-30T06:15:29.751Z,100.00
2023-04-30T06:17:57.577Z,100.00
2023-04-30T06:20:27.282Z,100.00
2023-04-30T06:22:55.570Z,100.00
2023-04-30T06:25:23.314Z,100.00
2023-04-30T06:27:54.370Z,100.00
2023-04-30T06:30:22.203Z,100.00
2023-04-30T06:32:50.105Z,100.00
2023-04-30T06:35:17.949Z,100.00
2023-04-30T06:37:47.022Z,100.00
2023-04-30T06:40:15.723Z,100.00
2023-04-30T06:42:45.058Z,100.00
2023-04-30T06:45:15.201Z,100.00
2023-04-30T06:47:44.836Z,100.00
2023-04-30T06:50:12.601Z,100.00
2023-04-30T06:52:41.133Z,100.00
2023-04-30T06:55:10.762Z,100.00
2023-04-30T06:57:38.547Z,100.00
2023-04-30T07:00:07.389Z,100.00
2023-04-30T07:02:35.151Z,100.00
2023-04-30T07:05:03.227Z,100.00
2023-04-30T07:07:32.703Z,100.00
2023-04-30T07:10:04.066Z,100.00
2023-04-30T07:12:33.439Z,100.00
2023-04-30T07:15:06.016Z,100.00
2023-04-30T07:17:43.256Z,100.00
2023-04-30T07:20:14.848Z,100.00
2023-04-30T07:22:44.718Z,100.00
2023-04-30T07:25:12.690Z,100.00
2023-04-30T07:27:42.195Z,100.00
2023-04-30T07:30:10.927Z,100.00
2023-04-30T07:32:40.981Z,100.00
2023-04-30T07:35:09.442Z,100.00
2023-04-30T07:37:41.218Z,100.00
2023-04-30T07:40:15.399Z,95.48
2023-04-30T07:42:46.587Z,96.35
2023-04-30T07:45:15.466Z,96.28
2023-04-30T07:47:43.327Z,94.23
2023-04-30T07:50:12.317Z,92.83
2023-04-30T07:52:40.060Z,91.71
2023-04-30T07:55:08.703Z,93.58
2023-04-30T07:57:36.508Z,92.68
2023-04-30T08:00:07.307Z,91.40
2023-04-30T08:02:40.221Z,90.31
2023-04-30T08:05:09.385Z,89.72
2023-04-30T08:07:37.592Z,89.79
2023-04-30T08:10:06.375Z,89.97
2023-04-30T08:12:37.448Z,90.33
2023-04-30T08:15:08.548Z,90.31
2023-04-30T08:17:36.734Z,93.52
2023-04-30T08:20:06.781Z,93.72
2023-04-30T08:22:34.909Z,92.14
2023-04-30T08:25:03.210Z,90.19
2023-04-30T08:27:32.389Z,87.45
2023-04-30T08:30:00.087Z,90.01
2023-04-30T08:32:29.805Z,89.17
2023-04-30T08:34:57.862Z,85.87
2023-04-30T08:37:25.646Z,85.28
2023-04-30T08:39:53.521Z,86.25
2023-04-30T08:42:25.966Z,85.34
2023-04-30T08:44:53.647Z,79.27
2023-04-30T08:47:22.583Z,81.39
2023-04-30T08:49:52.017Z,84.29
2023-04-30T08:52:20.121Z,84.37
2023-04-30T08:54:49.046Z,82.28
2023-04-30T08:57:16.818Z,80.28
2023-04-30T08:59:46.200Z,80.42
2023-04-30T09:02:14.223Z,73.84
2023-04-30T09:04:43.446Z,73.87
2023-04-30T09:07:14.591Z,75.82
2023-04-30T09:09:43.100Z,73.20
2023-04-30T09:12:18.673Z,72.01
2023-04-30T09:15:02.972Z,66.45
2023-04-30T09:17:31.494Z,71.73
2023-04-30T09:20:08.415Z,71.08
2023-04-30T09:22:39.134Z,70.69
2023-04-30T09:25:08.373Z,73.19
2023-04-30T09:27:37.035Z,69.43
2023-04-30T09:30:05.675Z,69.58
2023-04-30T09:32:40.756Z,71.36
2023-04-30T09:35:33.209Z,71.82
2023-04-30T09:38:08.177Z,71.10
2023-04-30T09:40:38.640Z,70.17
2023-04-30T09:43:06.887Z,71.16
2023-04-30T09:45:47.492Z,70.11
2023-04-30T09:48:18.076Z,67.53
2023-04-30T09:50:47.205Z,71.57
2023-04-30T09:53:17.933Z,70.95
2023-04-30T09:55:47.746Z,67.69
2023-04-30T09:58:17.372Z,69.67
2023-04-30T10:00:48.356Z,70.43
2023-04-30T10:03:20.180Z,67.80
2023-04-30T10:05:58.089Z,64.57
2023-04-30T10:08:31.870Z,64.88
2023-04-30T10:11:04.031Z,61.60
2023-04-30T10:13:34.347Z,59.83
2023-04-30T10:16:10.611Z,59.67
2023-04-30T10:18:43.800Z,60.21
2023-04-30T10:21:16.503Z,62.00
2023-04-30T10:23:45.930Z,59.48
2023-04-30T10:26:16.648Z,58.10
2023-04-30T10:28:44.370Z,62.46
2023-04-30T10:31:14.418Z,60.04
2023-04-30T10:33:51.528Z,57.06
2023-04-30T10:36:27.735Z,57.95
2023-04-30T10:38:56.923Z,61.50
2023-04-30T10:41:28.239Z,61.90
2023-04-30T10:44:01.781Z,62.72
2023-04-30T10:46:30.500Z,63.42
2023-04-30T10:49:00.143Z,66.61
2023-04-30T10:51:46.506Z,64.12
2023-04-30T10:54:18.620Z,66.29
2023-04-30T10:56:48.488Z,64.39
2023-04-30T10:59:16.379Z,63.76
2023-04-30T11:02:03.546Z,64.49
2023-04-30T11:04:31.600Z,65.85
2023-04-30T11:07:09.921Z,62.14
2023-04-30T11:09:42.343Z,63.43
2023-04-30T11:12:15.333Z,63.09
2023-04-30T11:14:45.189Z,63.34
2023-04-30T11:17:14.665Z,61.77
2023-04-30T11:19:53.335Z,62.98
2023-04-30T11:22:24.320Z,61.78
2023-04-30T11:25:05.304Z,60.03
2023-04-30T11:27:34.672Z,55.80
2023-04-30T11:30:03.310Z,52.71
2023-04-30T11:32:35.587Z,50.82
2023-04-30T11:35:04.564Z,53.18
2023-04-30T11:37:33.809Z,52.51
2023-04-30T11:40:05.957Z,52.22
2023-04-30T11:42:35.586Z,49.56
2023-04-30T11:45:09.003Z,49.90
2023-04-30T11:47:46.925Z,52.01
2023-04-30T11:50:16.632Z,48.34
2023-04-30T11:52:50.952Z,48.10
2023-04-30T11:55:21.372Z,49.81
2023-04-30T11:57:50.441Z,48.76
2023-04-30T12:00:20.112Z,45.32
2023-04-30T12:02:50.306Z,46.07
2023-04-30T12:05:20.163Z,50.70
2023-04-30T12:07:49.381Z,46.63
2023-04-30T12:10:17.718Z,48.64
2023-04-30T12:12:49.298Z,47.27
2023-04-30T12:15:20.013Z,48.16
2023-04-30T12:17:47.868Z,47.11
2023-04-30T12:20:16.525Z,47.39
2023-04-30T12:22:45.181Z,47.71
2023-04-30T12:25:14.776Z,49.54
2023-04-30T12:27:43.521Z,45.75
2023-04-30T12:30:13.765Z,46.96
2023-04-30T12:32:43.625Z,48.03
2023-04-30T12:35:16.632Z,49.97
2023-04-30T12:37:45.720Z,47.07
2023-04-30T12:40:14.669Z,45.60
2023-04-30T12:42:43.641Z,47.51
2023-04-30T12:45:13.644Z,46.26
2023-04-30T12:47:43.325Z,46.09
2023-04-30T12:50:13.366Z,46.74
2023-04-30T12:52:42.180Z,48.10
2023-04-30T12:55:19.591Z,47.73
2023-04-30T12:58:07.548Z,49.73
2023-04-30T13:00:47.749Z,50.42
2023-04-30T13:03:18.129Z,47.95
2023-04-30T13:05:49.309Z,47.99
2023-04-30T13:08:18.196Z,47.14
2023-04-30T13:10:46.437Z,47.20
2023-04-30T13:13:15.270Z,45.81
2023-04-30T13:15:44.135Z,47.24
2023-04-30T13:18:15.990Z,47.69
2023-04-30T13:20:44.658Z,45.60
2023-04-30T13:23:13.004Z,47.12
2023-04-30T13:25:41.819Z,48.68
2023-04-30T13:28:09.735Z,49.49
2023-04-30T13:30:39.942Z,46.62
2023-04-30T13:33:07.729Z,47.69
2023-04-30T13:35:38.726Z,44.75
2023-04-30T13:38:07.005Z,46.62
2023-04-30T13:40:34.977Z,46.34
2023-04-30T13:43:03.670Z,48.39
2023-04-30T13:45:36.721Z,46.85
2023-04-30T13:48:04.716Z,45.29
2023-04-30T13:50:32.768Z,46.49
2023-04-30T13:53:02.121Z,44.34
2023-04-30T13:55:30.687Z,46.72
2023-04-30T13:57:58.705Z,47.23
2023-04-30T14:00:26.653Z,47.81
2023-04-30T14:02:55.647Z,47.65
2023-04-30T14:05:23.864Z,45.77
2023-04-30T14:07:51.593Z,44.63
2023-04-30T14:10:20.841Z,46.03
2023-04-30T14:12:48.768Z,44.97
2023-04-30T14:15:16.654Z,44.84
2023-04-30T14:17:45.019Z,47.09
2023-04-30T14:20:14.059Z,45.04
2023-04-30T14:22:41.737Z,44.39
2023-04-30T14:25:10.669Z,46.79
2023-04-30T14:27:40.846Z,44.97
2023-04-30T14:30:10.112Z,45.74
2023-04-30T14:32:38.614Z,45.46
2023-04-30T14:35:07.513Z,44.51
2023-04-30T14:37:35.321Z,48.70
2023-04-30T14:40:03.232Z,49.86
2023-04-30T14:42:30.989Z,48.24
2023-04-30T14:45:00.077Z,47.60
2023-04-30T14:47:29.103Z,47.02
2023-04-30T14:49:58.786Z,45.29
2023-04-30T14:52:26.510Z,48.80
2023-04-30T14:54:54.265Z,50.63
2023-04-30T14:57:23.476Z,49.19
2023-04-30T14:59:52.918Z,49.12
2023-04-30T15:02:22.736Z,46.93
2023-04-30T15:04:50.949Z,47.26
2023-04-30T15:07:20.167Z,46.68
2023-04-30T15:09:48.431Z,47.42
2023-04-30T15:12:16.439Z,44.38
2023-04-30T15:14:44.780Z,49.24
2023-04-30T15:17:12.420Z,49.10
2023-04-30T15:19:42.218Z,48.13
2023-04-30T15:22:10.058Z,46.51
2023-04-30T15:24:38.184Z,45.83
2023-04-30T15:27:06.092Z,46.24
2023-04-30T15:29:36.047Z,46.07
2023-04-30T15:32:04.698Z,46.93
2023-04-30T15:34:33.041Z,48.52
2023-04-30T15:37:02.846Z,48.70
2023-04-30T15:39:31.328Z,50.38
2023-04-30T15:41:59.270Z,46.80
2023-04-30T15:44:27.016Z,48.14
2023-04-30T15:46:54.986Z,47.13
2023-04-30T15:49:23.315Z,46.95
2023-04-30T15:51:52.512Z,46.97
2023-04-30T15:54:23.325Z,48.56
2023-04-30T15:56:51.552Z,50.90
2023-04-30T15:59:19.860Z,49.25
2023-04-30T16:01:48.018Z,49.71
2023-04-30T16:04:17.191Z,50.50
2023-04-30T16:06:45.266Z,50.34
2023-04-30T16:09:17.352Z,47.00
2023-04-30T16:11:47.445Z,50.12
2023-04-30T16:14:15.167Z,52.94
2023-04-30T16:16:43.425Z,50.87
2023-04-30T16:19:12.475Z,53.32
2023-04-30T16:21:41.288Z,53.62
2023-04-30T16:24:10.392Z,52.58
2023-04-30T16:26:38.287Z,53.91
2023-04-30T16:29:07.711Z,53.87
2023-04-30T16:31:35.679Z,52.75
2023-04-30T16:34:03.501Z,53.48
2023-04-30T16:36:31.123Z,52.57
2023-04-30T16:38:59.199Z,52.16
2023-04-30T16:41:26.871Z,55.66
2023-04-30T16:43:54.807Z,49.89
2023-04-30T16:46:23.905Z,53.77
2023-04-30T16:48:51.967Z,54.05
2023-04-30T16:51:19.842Z,54.40
2023-04-30T16:53:48.217Z,53.31
2023-04-30T16:56:15.912Z,53.27
2023-04-30T16:58:43.547Z,56.15
2023-04-30T17:01:11.430Z,57.56
2023-04-30T17:03:40.932Z,57.49
2023-04-30T17:06:08.822Z,57.69
2023-04-30T17:08:37.259Z,57.93
2023-04-30T17:11:06.235Z,55.25
2023-04-30T17:13:34.541Z,58.47
2023-04-30T17:16:03.340Z,56.70
2023-04-30T17:18:31.169Z,57.10
2023-04-30T17:21:00.555Z,58.18
2023-04-30T17:23:28.189Z,59.52
2023-04-30T17:25:56.377Z,55.42
2023-04-30T17:28:24.298Z,53.60
2023-04-30T17:30:52.738Z,56.28
2023-04-30T17:33:20.468Z,58.99
2023-04-30T17:35:48.140Z,59.96
2023-04-30T17:38:17.339Z,60.43
2023-04-30T17:40:45.279Z,57.69
2023-04-30T17:43:13.089Z,60.33
2023-04-30T17:45:41.454Z,64.69
2023-04-30T17:48:09.195Z,63.25
2023-04-30T17:50:37.350Z,60.13
2023-04-30T17:53:05.118Z,63.30
2023-04-30T17:55:34.202Z,64.22
2023-04-30T17:58:04.201Z,62.75
2023-04-30T18:00:32.309Z,64.51
2023-04-30T18:03:00.250Z,66.29
2023-04-30T18:05:28.240Z,67.32
2023-04-30T18:07:56.105Z,66.08
2023-04-30T18:10:23.791Z,68.10
2023-04-30T18:12:53.585Z,68.63
2023-04-30T18:15:21.925Z,68.29
2023-04-30T18:17:49.831Z,69.25
2023-04-30T18:20:17.751Z,69.79
2023-04-30T18:22:45.673Z,70.58
2023-04-30T18:25:14.355Z,69.99
2023-04-30T18:27:42.163Z,70.18
2023-04-30T18:30:12.655Z,70.14
2023-04-30T18:32:42.092Z,70.42
2023-04-30T18:35:11.044Z,70.30
2023-04-30T18:37:39.477Z,66.81
2023-04-30T18:40:08.719Z,66.87
2023-04-30T18:42:37.705Z,69.12
2023-04-30T18:45:07.004Z,68.81
2023-04-30T18:47:36.670Z,69.36
2023-04-30T18:50:05.585Z,69.65
2023-04-30T18:52:33.470Z,70.40
2023-04-30T18:55:01.198Z,70.34
2023-04-30T18:57:29.202Z,70.34
2023-04-30T18:59:57.458Z,71.45
2023-04-30T19:02:25.758Z,70.41
2023-04-30T19:04:55.287Z,70.62
2023-04-30T19:07:23.320Z,69.89
2023-04-30T19:09:51.807Z,69.60
2023-04-30T19:12:19.514Z,70.72
2023-04-30T19:14:47.381Z,71.54
2023-04-30T19:17:15.236Z,74.13
2023-04-30T19:19:43.985Z,73.17
2023-04-30T19:22:13.082Z,72.87
2023-04-30T19:24:41.177Z,74.84
2023-04-30T19:27:09.315Z,74.82
2023-04-30T19:29:39.295Z,74.29
2023-04-30T19:32:08.146Z,74.54
2023-04-30T19:34:36.524Z,75.50
2023-04-30T19:37:04.531Z,76.02
2023-04-30T19:39:36.575Z,75.97
2023-04-30T19:42:06.147Z,75.32
2023-04-30T19:44:33.937Z,76.09
2023-04-30T19:47:02.834Z,75.82
2023-04-30T19:49:30.809Z,75.13
2023-04-30T19:51:59.323Z,76.04
2023-04-30T19:54:27.040Z,76.76
2023-04-30T19:56:57.784Z,76.45
2023-04-30T19:59:26.734Z,76.63
2023-04-30T20:01:54.610Z,75.24
2023-04-30T20:04:22.869Z,75.99
2023-04-30T20:06:56.714Z,73.70
2023-04-30T20:09:24.887Z,75.37
2023-04-30T20:11:52.622Z,74.13
2023-04-30T20:14:24.047Z,75.51
2023-04-30T20:16:54.148Z,73.95
2023-04-30T20:19:23.237Z,75.34
2023-04-30T20:21:51.907Z,74.22
2023-04-30T20:24:21.782Z,74.77
2023-04-30T20:26:49.835Z,74.09
2023-04-30T20:29:20.568Z,74.73
2023-04-30T20:31:50.370Z,75.56
2023-04-30T20:34:18.276Z,73.48
2023-04-30T20:36:45.942Z,75.05
2023-04-30T20:39:14.626Z,73.59
2023-04-30T20:41:43.572Z,71.76
2023-04-30T20:44:11.484Z,74.50
2023-04-30T20:46:39.289Z,73.83
2023-04-30T20:49:10.991Z,73.77
2023-04-30T20:51:39.625Z,74.73
2023-04-30T20:54:08.633Z,74.79
2023-04-30T20:56:36.800Z,74.50
2023-04-30T20:59:05.846Z,75.87
2023-04-30T21:01:33.684Z,75.07
2023-04-30T21:04:01.486Z,73.56
2023-04-30T21:06:31.871Z,73.76
2023-04-30T21:08:59.976Z,75.46
2023-04-30T21:11:28.972Z,74.32
2023-04-30T21:13:57.713Z,73.56
2023-04-30T21:16:25.431Z,75.61
2023-04-30T21:18:53.365Z,74.89
2023-04-30T21:21:21.084Z,74.34
2023-04-30T21:23:50.442Z,75.01
2023-04-30T21:26:18.177Z,74.16
2023-04-30T21:28:46.522Z,75.22
2023-04-30T21:31:14.742Z,75.26
2023-04-30T21:33:42.436Z,76.38
2023-04-30T21:36:10.244Z,76.08
2023-04-30T21:38:38.800Z,75.73
2023-04-30T21:41:07.923Z,75.80
2023-04-30T21:43:35.626Z,75.04
2023-04-30T21:46:04.027Z,75.59
2023-04-30T21:48:31.811Z,76.12
2023-04-30T21:50:59.518Z,76.31
2023-04-30T21:53:27.317Z,75.73
2023-04-30T21:55:55.361Z,75.36
2023-04-30T21:58:25.344Z,76.06
2023-04-30T22:00:55.197Z,75.31
2023-04-30T22:03:23.159Z,77.00
2023-04-30T22:05:50.893Z,76.92
2023-04-30T22:08:18.862Z,77.41
2023-04-30T22:10:46.799Z,79.51
2023-04-30T22:13:15.101Z,78.23
2023-04-30T22:15:48.257Z,79.70
2023-04-30T22:18:16.955Z,79.69
2023-04-30T22:20:44.888Z,79.10
2023-04-30T22:23:12.557Z,79.61
2023-04-30T22:25:43.128Z,79.62
2023-04-30T22:28:11.309Z,79.86
2023-04-30T22:30:39.756Z,79.78
2023-04-30T22:33:09.138Z,80.96
2023-04-30T22:35:38.605Z,82.60
2023-04-30T22:38:06.576Z,82.10
2023-04-30T22:40:35.691Z,82.48
2023-04-30T22:43:05.224Z,82.06
2023-04-30T22:45:36.879Z,82.59
2023-04-30T22:48:05.575Z,82.77
2023-04-30T22:50:35.630Z,83.72
2023-04-30T22:53:03.645Z,84.17
2023-04-30T22:55:32.930Z,83.31
2023-04-30T22:58:01.900Z,84.49
2023-04-30T23:00:29.582Z,84.52
2023-04-30T23:02:57.621Z,85.08
2023-04-30T23:05:26.391Z,85.05
2023-04-30T23:07:55.599Z,85.21
2023-04-30T23:10:23.363Z,85.99
2023-04-30T23:12:52.347Z,85.74
2023-04-30T23:15:20.157Z,85.97
2023-04-30T23:17:47.978Z,85.88
2023-04-30T23:20:16.670Z,85.96
2023-04-30T23:22:44.676Z,86.55
2023-04-30T23:25:13.778Z,87.30
2023-04-30T23:27:41.495Z,87.27
2023-04-30T23:30:11.202Z,87.84
2023-04-30T23:32:39.525Z,87.36
2023-04-30T23:35:09.230Z,87.78
2023-04-30T23:37:37.673Z,88.19
2023-04-30T23:40:07.485Z,90.44
2023-04-30T23:42:37.033Z,90.47
2023-04-30T23:45:05.786Z,90.17
2023-04-30T23:47:36.394Z,91.16
2023-04-30T23:50:04.663Z,90.98
2023-04-30T23:52:33.171Z,91.27
2023-04-30T23:55:00.884Z,92.20
2023-04-30T23:57:28.917Z,92.49
2023-04-30T23:59:58.614Z,93.28
